Jacksonville, IL

3:40 AM CST on February 11, 2016 (GMT -0600)
Book Lane | | Change Station
CLOSE
Current Station
Personal Weather Station
Location: Jacksonville, IL
Elevation: 663 ft
Nearby Weather Stations

Elev 663 ft 39.73 °N, 90.26 °W | Updated 3 seconds ago

Overcast
Overcast
19.8 °F
Feels Like 20 °F
N
0.2
Wind Variable Wind from NNE
Gusts 3.6 mph

Today
High -- | Low -- °F
--% Chance of Precip.
Yesterday
High -- | Low -- °F
Precip. -- in
Pressure 30.21 in
Visibility 10.0 miles
Clouds Scattered Clouds 1600 ft
Overcast 4100 ft
Windchill 20 °F
Dew Point 10 °F
Humidity 66%
Rainfall 0.00 in
Snow Depth Not available.
6:58 AM 5:32 PM
Waxing Crescent, 10% visible
METAR KIJX 110915Z AUTO 02005KT 10SM SCT016 OVC041 M06/M09 A3021 RMK AO2 T10571091
Pressure 30.21 in
Visibility 10.0 miles
Clouds Scattered Clouds 1600 ft
Overcast 4100 ft
Windchill 20 °F
Dew Point 10 °F
Humidity 66%
Rainfall 0.00 in
Snow Depth Not available.
6:58 AM 5:32 PM
Waxing Crescent, 10% visible
METAR KIJX 110915Z AUTO 02005KT 10SM SCT016 OVC041 M06/M09 A3021 RMK AO2 T10571091

10-Day Weather Forecast

Almanac

Astronomy

Feb. 11, 2016 Rise Set
Actual Time
Civil Twilight
Nautical Twilight
Astronomical Twilight
Moon
Length of Visible Light
Length of Day
Tomorrow will be .
, % of the Moon is Illuminated

Today's Extremes

State Highs State Lows

Community

WunderPhotos

Upload Photos

1,892,030 photos uploaded!

WunderBlog® & News

Nearby

Air Quality

  Air Quality AQ Index Pollutant
Not available.

Snow Depth

Station Depth Elevation

Earthquake Activity

City Distance Mag. Time & Date
Minimum magnitude displayed is 2.5.

Coastal Water Temperatures

Place Temperature

Stations

Nearby Weather Stations

Station Location Temp. Windchill Dew Point Humidity Wind Precip. Elev Updated Type
                   

Watches & Warnings

There are currently no watches in effect.